sensor_id;sensor_type;location;lat;lon;timestamp;P1;durP1;ratioP1;P2;durP2;ratioP2
68938;SDS011;59064;45.294;11.816;2022-08-19T00:00:23;8.30;;;1.80;;
68938;SDS011;59064;45.294;11.816;2022-08-19T00:02:50;6.30;;;1.90;;
68938;SDS011;59064;45.294;11.816;2022-08-19T00:05:16;5.60;;;1.80;;
68938;SDS011;59064;45.294;11.816;2022-08-19T00:07:44;11.30;;;2.60;;
68938;SDS011;59064;45.294;11.816;2022-08-19T00:10:11;6.80;;;2.10;;
68938;SDS011;59064;45.294;11.816;2022-08-19T00:12:39;6.70;;;2.10;;
68938;SDS011;59064;45.294;11.816;2022-08-19T00:15:05;9.10;;;2.40;;
68938;SDS011;59064;45.294;11.816;2022-08-19T00:17:35;6.50;;;2.20;;
68938;SDS011;59064;45.294;11.816;2022-08-19T00:20:01;11.20;;;2.00;;
68938;SDS011;59064;45.294;11.816;2022-08-19T00:22:26;4.70;;;1.90;;
68938;SDS011;59064;45.294;11.816;2022-08-19T00:24:53;7.20;;;2.00;;
68938;SDS011;59064;45.294;11.816;2022-08-19T00:27:18;4.60;;;1.80;;
68938;SDS011;59064;45.294;11.816;2022-08-19T00:29:44;6.80;;;2.00;;
68938;SDS011;59064;45.294;11.816;2022-08-19T00:32:10;7.90;;;2.70;;
68938;SDS011;59064;45.294;11.816;2022-08-19T00:34:35;7.80;;;2.20;;
68938;SDS011;59064;45.294;11.816;2022-08-19T00:37:01;7.60;;;1.80;;
68938;SDS011;59064;45.294;11.816;2022-08-19T00:39:26;6.30;;;2.10;;
68938;SDS011;59064;45.294;11.816;2022-08-19T00:41:52;4.70;;;1.70;;
68938;SDS011;59064;45.294;11.816;2022-08-19T00:44:20;9.80;;;2.70;;
68938;SDS011;59064;45.294;11.816;2022-08-19T00:46:51;10.40;;;3.00;;
68938;SDS011;59064;45.294;11.816;2022-08-19T00:49:25;10.00;;;2.70;;
68938;SDS011;59064;45.294;11.816;2022-08-19T00:52:01;7.20;;;2.20;;
68938;SDS011;59064;45.294;11.816;2022-08-19T00:54:33;10.80;;;2.60;;
68938;SDS011;59064;45.294;11.816;2022-08-19T00:57:02;8.10;;;2.80;;
68938;SDS011;59064;45.294;11.816;2022-08-19T00:59:32;9.00;;;2.50;;
68938;SDS011;59064;45.294;11.816;2022-08-19T01:02:02;5.40;;;2.30;;
68938;SDS011;59064;45.294;11.816;2022-08-19T01:04:28;5.80;;;2.50;;
68938;SDS011;59064;45.294;11.816;2022-08-19T01:06:54;6.10;;;2.30;;
68938;SDS011;59064;45.294;11.816;2022-08-19T01:09:21;7.30;;;2.40;;
68938;SDS011;59064;45.294;11.816;2022-08-19T01:11:46;7.40;;;2.60;;
68938;SDS011;59064;45.294;11.816;2022-08-19T01:14:12;6.00;;;2.10;;
68938;SDS011;59064;45.294;11.816;2022-08-19T01:16:39;8.70;;;2.60;;
68938;SDS011;59064;45.294;11.816;2022-08-19T01:19:27;9.40;;;2.90;;
68938;SDS011;59064;45.294;11.816;2022-08-19T01:22:04;7.80;;;2.50;;
68938;SDS011;59064;45.294;11.816;2022-08-19T01:24:36;6.10;;;2.20;;
68938;SDS011;59064;45.294;11.816;2022-08-19T01:27:05;12.70;;;3.00;;
68938;SDS011;59064;45.294;11.816;2022-08-19T01:29:32;7.10;;;2.60;;
68938;SDS011;59064;45.294;11.816;2022-08-19T01:32:00;8.70;;;3.50;;
68938;SDS011;59064;45.294;11.816;2022-08-19T01:34:26;8.10;;;3.10;;
68938;SDS011;59064;45.294;11.816;2022-08-19T01:36:51;9.20;;;3.40;;
68938;SDS011;59064;45.294;11.816;2022-08-19T01:39:21;7.20;;;2.80;;
68938;SDS011;59064;45.294;11.816;2022-08-19T01:41:49;5.00;;;2.80;;
68938;SDS011;59064;45.294;11.816;2022-08-19T01:44:15;7.50;;;3.10;;
68938;SDS011;59064;45.294;11.816;2022-08-19T01:46:41;6.60;;;3.10;;
68938;SDS011;59064;45.294;11.816;2022-08-19T01:49:09;6.90;;;2.90;;
68938;SDS011;59064;45.294;11.816;2022-08-19T01:51:35;9.10;;;3.80;;
68938;SDS011;59064;45.294;11.816;2022-08-19T01:54:01;7.60;;;3.40;;
68938;SDS011;59064;45.294;11.816;2022-08-19T01:56:27;7.10;;;3.30;;
68938;SDS011;59064;45.294;11.816;2022-08-19T01:58:54;7.40;;;3.30;;
68938;SDS011;59064;45.294;11.816;2022-08-19T02:01:22;11.50;;;2.90;;
68938;SDS011;59064;45.294;11.816;2022-08-19T02:03:49;6.30;;;2.50;;
68938;SDS011;59064;45.294;11.816;2022-08-19T02:06:15;7.70;;;2.70;;
68938;SDS011;59064;45.294;11.816;2022-08-19T02:08:42;6.30;;;2.50;;
68938;SDS011;59064;45.294;11.816;2022-08-19T02:11:17;7.00;;;3.70;;
68938;SDS011;59064;45.294;11.816;2022-08-19T02:13:48;8.00;;;3.10;;
68938;SDS011;59064;45.294;11.816;2022-08-19T02:16:14;9.00;;;4.70;;
68938;SDS011;59064;45.294;11.816;2022-08-19T02:18:41;9.00;;;2.70;;
68938;SDS011;59064;45.294;11.816;2022-08-19T02:21:07;11.60;;;3.20;;
68938;SDS011;59064;45.294;11.816;2022-08-19T02:23:32;8.30;;;2.60;;
68938;SDS011;59064;45.294;11.816;2022-08-19T02:25:58;7.80;;;2.40;;
68938;SDS011;59064;45.294;11.816;2022-08-19T02:28:23;5.60;;;2.30;;
68938;SDS011;59064;45.294;11.816;2022-08-19T02:30:48;8.00;;;2.70;;
68938;SDS011;59064;45.294;11.816;2022-08-19T02:33:14;9.00;;;2.60;;
68938;SDS011;59064;45.294;11.816;2022-08-19T02:35:41;10.20;;;2.30;;
68938;SDS011;59064;45.294;11.816;2022-08-19T02:38:11;7.80;;;2.30;;
68938;SDS011;59064;45.294;11.816;2022-08-19T02:41:03;10.00;;;2.80;;
68938;SDS011;59064;45.294;11.816;2022-08-19T02:43:32;6.10;;;2.50;;
68938;SDS011;59064;45.294;11.816;2022-08-19T02:46:01;6.00;;;2.10;;
68938;SDS011;59064;45.294;11.816;2022-08-19T02:48:51;6.70;;;2.20;;
68938;SDS011;59064;45.294;11.816;2022-08-19T02:51:28;10.00;;;2.30;;
68938;SDS011;59064;45.294;11.816;2022-08-19T02:53:56;6.50;;;2.00;;
68938;SDS011;59064;45.294;11.816;2022-08-19T02:56:22;7.70;;;2.10;;
68938;SDS011;59064;45.294;11.816;2022-08-19T02:58:49;7.50;;;2.00;;
68938;SDS011;59064;45.294;11.816;2022-08-19T03:01:22;9.10;;;2.20;;
68938;SDS011;59064;45.294;11.816;2022-08-19T03:03:49;6.80;;;2.10;;
68938;SDS011;59064;45.294;11.816;2022-08-19T03:06:16;8.20;;;2.20;;
68938;SDS011;59064;45.294;11.816;2022-08-19T03:08:43;7.20;;;2.20;;
68938;SDS011;59064;45.294;11.816;2022-08-19T03:20:29;7.70;;;2.50;;
68938;SDS011;59064;45.294;11.816;2022-08-19T03:22:55;8.70;;;2.30;;
68938;SDS011;59064;45.294;11.816;2022-08-19T03:25:20;6.20;;;2.10;;
68938;SDS011;59064;45.294;11.816;2022-08-19T03:27:47;8.30;;;2.50;;
68938;SDS011;59064;45.294;11.816;2022-08-19T03:30:14;8.80;;;2.80;;
68938;SDS011;59064;45.294;11.816;2022-08-19T03:32:39;8.20;;;2.60;;
68938;SDS011;59064;45.294;11.816;2022-08-19T03:35:05;10.40;;;2.90;;
68938;SDS011;59064;45.294;11.816;2022-08-19T03:37:31;7.00;;;3.00;;
68938;SDS011;59064;45.294;11.816;2022-08-19T03:39:57;9.70;;;3.10;;
68938;SDS011;59064;45.294;11.816;2022-08-19T03:42:22;8.00;;;3.90;;
68938;SDS011;59064;45.294;11.816;2022-08-19T03:44:48;12.80;;;3.70;;
68938;SDS011;59064;45.294;11.816;2022-08-19T03:47:13;5.80;;;2.70;;
68938;SDS011;59064;45.294;11.816;2022-08-19T03:49:42;9.60;;;2.90;;
68938;SDS011;59064;45.294;11.816;2022-08-19T03:52:08;6.50;;;2.50;;
68938;SDS011;59064;45.294;11.816;2022-08-19T03:54:33;8.20;;;2.60;;
68938;SDS011;59064;45.294;11.816;2022-08-19T03:57:00;7.50;;;2.80;;
68938;SDS011;59064;45.294;11.816;2022-08-19T03:59:27;6.50;;;2.50;;
68938;SDS011;59064;45.294;11.816;2022-08-19T04:01:58;10.10;;;3.30;;
68938;SDS011;59064;45.294;11.816;2022-08-19T04:04:25;8.20;;;2.30;;
68938;SDS011;59064;45.294;11.816;2022-08-19T04:06:52;7.20;;;2.30;;
68938;SDS011;59064;45.294;11.816;2022-08-19T04:09:18;6.30;;;2.50;;
68938;SDS011;59064;45.294;11.816;2022-08-19T04:11:49;9.30;;;2.90;;
68938;SDS011;59064;45.294;11.816;2022-08-19T04:14:20;7.50;;;2.60;;
68938;SDS011;59064;45.294;11.816;2022-08-19T04:16:50;7.80;;;2.60;;
68938;SDS011;59064;45.294;11.816;2022-08-19T04:19:17;10.20;;;2.50;;
68938;SDS011;59064;45.294;11.816;2022-08-19T04:21:44;9.10;;;2.40;;
68938;SDS011;59064;45.294;11.816;2022-08-19T04:24:12;8.30;;;3.00;;
68938;SDS011;59064;45.294;11.816;2022-08-19T04:26:38;7.40;;;2.80;;
68938;SDS011;59064;45.294;11.816;2022-08-19T04:29:08;5.90;;;2.30;;
68938;SDS011;59064;45.294;11.816;2022-08-19T04:31:37;9.70;;;2.50;;
68938;SDS011;59064;45.294;11.816;2022-08-19T04:34:06;5.90;;;2.30;;
68938;SDS011;59064;45.294;11.816;2022-08-19T04:36:34;7.80;;;2.20;;
68938;SDS011;59064;45.294;11.816;2022-08-19T04:39:06;12.10;;;2.50;;
68938;SDS011;59064;45.294;11.816;2022-08-19T04:41:35;8.40;;;2.30;;
68938;SDS011;59064;45.294;11.816;2022-08-19T04:44:19;8.40;;;2.30;;
68938;SDS011;59064;45.294;11.816;2022-08-19T04:46:46;8.90;;;2.40;;
68938;SDS011;59064;45.294;11.816;2022-08-19T04:49:13;6.80;;;2.00;;
68938;SDS011;59064;45.294;11.816;2022-08-19T04:51:41;5.50;;;2.00;;
68938;SDS011;59064;45.294;11.816;2022-08-19T04:54:08;6.90;;;1.90;;
68938;SDS011;59064;45.294;11.816;2022-08-19T04:56:34;9.00;;;1.80;;
68938;SDS011;59064;45.294;11.816;2022-08-19T04:58:59;7.00;;;2.10;;
68938;SDS011;59064;45.294;11.816;2022-08-19T05:01:29;6.90;;;1.90;;
68938;SDS011;59064;45.294;11.816;2022-08-19T05:03:56;7.40;;;2.40;;
68938;SDS011;59064;45.294;11.816;2022-08-19T05:06:23;6.20;;;2.00;;
68938;SDS011;59064;45.294;11.816;2022-08-19T05:08:50;5.60;;;1.70;;
68938;SDS011;59064;45.294;11.816;2022-08-19T05:11:17;6.30;;;1.70;;
68938;SDS011;59064;45.294;11.816;2022-08-19T05:13:45;8.40;;;2.20;;
68938;SDS011;59064;45.294;11.816;2022-08-19T05:16:12;7.70;;;1.90;;
68938;SDS011;59064;45.294;11.816;2022-08-19T05:18:38;6.20;;;1.80;;
68938;SDS011;59064;45.294;11.816;2022-08-19T05:21:23;6.60;;;1.80;;
68938;SDS011;59064;45.294;11.816;2022-08-19T05:24:10;5.40;;;1.90;;
68938;SDS011;59064;45.294;11.816;2022-08-19T05:26:38;7.60;;;2.20;;
68938;SDS011;59064;45.294;11.816;2022-08-19T05:29:06;5.60;;;1.90;;
68938;SDS011;59064;45.294;11.816;2022-08-19T05:31:32;6.90;;;1.90;;
68938;SDS011;59064;45.294;11.816;2022-08-19T05:33:59;10.40;;;2.20;;
68938;SDS011;59064;45.294;11.816;2022-08-19T05:36:26;4.90;;;1.90;;
68938;SDS011;59064;45.294;11.816;2022-08-19T05:38:53;7.20;;;1.90;;
68938;SDS011;59064;45.294;11.816;2022-08-19T05:41:19;6.70;;;1.80;;
68938;SDS011;59064;45.294;11.816;2022-08-19T05:43:52;5.10;;;1.80;;
68938;SDS011;59064;45.294;11.816;2022-08-19T05:46:18;7.90;;;1.90;;
68938;SDS011;59064;45.294;11.816;2022-08-19T05:48:44;7.50;;;1.80;;
68938;SDS011;59064;45.294;11.816;2022-08-19T05:51:10;5.30;;;1.60;;
68938;SDS011;59064;45.294;11.816;2022-08-19T05:53:36;5.80;;;1.70;;
68938;SDS011;59064;45.294;11.816;2022-08-19T05:56:12;6.80;;;1.80;;
68938;SDS011;59064;45.294;11.816;2022-08-19T05:58:43;3.90;;;1.20;;
68938;SDS011;59064;45.294;11.816;2022-08-19T06:01:10;6.40;;;1.70;;
68938;SDS011;59064;45.294;11.816;2022-08-19T06:03:39;7.60;;;1.40;;
68938;SDS011;59064;45.294;11.816;2022-08-19T06:06:05;5.80;;;1.70;;
68938;SDS011;59064;45.294;11.816;2022-08-19T06:08:33;3.90;;;1.50;;
68938;SDS011;59064;45.294;11.816;2022-08-19T06:11:12;4.80;;;1.60;;
68938;SDS011;59064;45.294;11.816;2022-08-19T06:14:11;5.10;;;1.60;;
68938;SDS011;59064;45.294;11.816;2022-08-19T06:16:42;5.00;;;1.60;;
68938;SDS011;59064;45.294;11.816;2022-08-19T06:19:09;5.20;;;1.60;;
68938;SDS011;59064;45.294;11.816;2022-08-19T06:21:41;3.60;;;1.20;;
68938;SDS011;59064;45.294;11.816;2022-08-19T06:24:09;5.50;;;1.20;;
68938;SDS011;59064;45.294;11.816;2022-08-19T06:26:38;6.40;;;1.40;;
68938;SDS011;59064;45.294;11.816;2022-08-19T06:29:06;5.40;;;1.40;;
68938;SDS011;59064;45.294;11.816;2022-08-19T06:31:34;5.20;;;1.80;;
68938;SDS011;59064;45.294;11.816;2022-08-19T06:34:01;5.40;;;1.40;;
68938;SDS011;59064;45.294;11.816;2022-08-19T06:36:33;5.20;;;1.30;;
68938;SDS011;59064;45.294;11.816;2022-08-19T06:41:30;3.80;;;1.20;;
68938;SDS011;59064;45.294;11.816;2022-08-19T06:44:07;4.30;;;1.30;;
68938;SDS011;59064;45.294;11.816;2022-08-19T06:46:32;5.10;;;1.70;;
68938;SDS011;59064;45.294;11.816;2022-08-19T06:48:58;4.60;;;1.50;;
68938;SDS011;59064;45.294;11.816;2022-08-19T06:51:24;7.80;;;1.40;;
68938;SDS011;59064;45.294;11.816;2022-08-19T06:53:51;5.60;;;1.30;;
68938;SDS011;59064;45.294;11.816;2022-08-19T06:56:20;4.20;;;1.20;;
68938;SDS011;59064;45.294;11.816;2022-08-19T06:58:49;8.60;;;1.90;;
68938;SDS011;59064;45.294;11.816;2022-08-19T07:01:17;7.10;;;1.60;;
68938;SDS011;59064;45.294;11.816;2022-08-19T07:03:44;5.30;;;1.70;;
68938;SDS011;59064;45.294;11.816;2022-08-19T07:06:12;7.10;;;1.50;;
68938;SDS011;59064;45.294;11.816;2022-08-19T07:08:43;4.80;;;1.30;;
68938;SDS011;59064;45.294;11.816;2022-08-19T07:11:12;5.70;;;1.30;;
68938;SDS011;59064;45.294;11.816;2022-08-19T07:13:40;4.10;;;1.40;;
68938;SDS011;59064;45.294;11.816;2022-08-19T07:16:09;4.50;;;1.40;;
68938;SDS011;59064;45.294;11.816;2022-08-19T07:18:37;5.90;;;1.40;;
68938;SDS011;59064;45.294;11.816;2022-08-19T07:21:04;5.60;;;1.40;;
68938;SDS011;59064;45.294;11.816;2022-08-19T07:23:31;6.00;;;1.30;;
68938;SDS011;59064;45.294;11.816;2022-08-19T07:25:57;4.70;;;1.20;;
68938;SDS011;59064;45.294;11.816;2022-08-19T07:28:23;3.00;;;0.90;;
68938;SDS011;59064;45.294;11.816;2022-08-19T07:30:49;5.90;;;1.30;;
68938;SDS011;59064;45.294;11.816;2022-08-19T07:33:15;4.90;;;1.60;;
68938;SDS011;59064;45.294;11.816;2022-08-19T07:35:42;5.00;;;1.20;;
68938;SDS011;59064;45.294;11.816;2022-08-19T07:38:08;4.00;;;1.30;;
68938;SDS011;59064;45.294;11.816;2022-08-19T07:40:34;5.60;;;1.10;;
68938;SDS011;59064;45.294;11.816;2022-08-19T07:43:00;5.90;;;1.40;;
68938;SDS011;59064;45.294;11.816;2022-08-19T07:45:25;4.90;;;1.20;;
68938;SDS011;59064;45.294;11.816;2022-08-19T07:47:52;4.80;;;1.10;;
68938;SDS011;59064;45.294;11.816;2022-08-19T07:50:18;2.80;;;0.80;;
68938;SDS011;59064;45.294;11.816;2022-08-19T07:52:45;5.40;;;1.30;;
68938;SDS011;59064;45.294;11.816;2022-08-19T07:55:11;4.80;;;1.10;;
68938;SDS011;59064;45.294;11.816;2022-08-19T07:57:37;4.00;;;1.40;;
68938;SDS011;59064;45.294;11.816;2022-08-19T08:00:04;4.70;;;1.40;;
68938;SDS011;59064;45.294;11.816;2022-08-19T08:02:30;5.00;;;1.10;;
68938;SDS011;59064;45.294;11.816;2022-08-19T08:04:55;5.50;;;1.50;;
68938;SDS011;59064;45.294;11.816;2022-08-19T08:07:39;5.60;;;1.40;;
68938;SDS011;59064;45.294;11.816;2022-08-19T08:10:23;6.00;;;1.40;;
68938;SDS011;59064;45.294;11.816;2022-08-19T08:12:50;5.60;;;1.30;;
68938;SDS011;59064;45.294;11.816;2022-08-19T08:15:16;3.90;;;1.30;;
68938;SDS011;59064;45.294;11.816;2022-08-19T08:17:44;7.60;;;1.60;;
68938;SDS011;59064;45.294;11.816;2022-08-19T08:20:09;3.80;;;1.20;;
68938;SDS011;59064;45.294;11.816;2022-08-19T08:22:35;4.00;;;1.00;;
68938;SDS011;59064;45.294;11.816;2022-08-19T08:25:20;4.10;;;1.00;;
68938;SDS011;59064;45.294;11.816;2022-08-19T08:27:48;4.30;;;0.90;;
68938;SDS011;59064;45.294;11.816;2022-08-19T08:30:24;4.20;;;1.00;;
68938;SDS011;59064;45.294;11.816;2022-08-19T08:32:52;2.30;;;0.70;;
68938;SDS011;59064;45.294;11.816;2022-08-19T08:35:18;3.30;;;0.80;;
68938;SDS011;59064;45.294;11.816;2022-08-19T08:37:46;4.00;;;1.00;;
68938;SDS011;59064;45.294;11.816;2022-08-19T08:45:35;4.40;;;0.90;;
68938;SDS011;59064;45.294;11.816;2022-08-19T08:51:31;5.10;;;1.20;;
68938;SDS011;59064;45.294;11.816;2022-08-19T08:54:00;2.50;;;0.80;;
68938;SDS011;59064;45.294;11.816;2022-08-19T08:56:29;3.40;;;0.60;;
68938;SDS011;59064;45.294;11.816;2022-08-19T08:58:59;1.90;;;0.50;;
68938;SDS011;59064;45.294;11.816;2022-08-19T09:01:31;2.90;;;0.60;;
68938;SDS011;59064;45.294;11.816;2022-08-19T09:03:57;4.80;;;0.90;;
68938;SDS011;59064;45.294;11.816;2022-08-19T09:15:04;2.90;;;0.70;;
68938;SDS011;59064;45.294;11.816;2022-08-19T09:17:33;2.70;;;0.50;;
68938;SDS011;59064;45.294;11.816;2022-08-19T09:20:00;1.80;;;0.50;;
68938;SDS011;59064;45.294;11.816;2022-08-19T09:22:34;2.70;;;0.50;;
68938;SDS011;59064;45.294;11.816;2022-08-19T09:25:00;4.00;;;0.70;;
68938;SDS011;59064;45.294;11.816;2022-08-19T09:27:27;2.00;;;0.70;;
68938;SDS011;59064;45.294;11.816;2022-08-19T09:29:53;2.40;;;0.70;;
68938;SDS011;59064;45.294;11.816;2022-08-19T09:32:20;2.50;;;0.50;;
68938;SDS011;59064;45.294;11.816;2022-08-19T09:34:46;2.20;;;0.60;;
68938;SDS011;59064;45.294;11.816;2022-08-19T09:37:12;2.80;;;0.70;;
68938;SDS011;59064;45.294;11.816;2022-08-19T09:39:38;2.20;;;0.60;;
68938;SDS011;59064;45.294;11.816;2022-08-19T09:42:05;2.30;;;0.60;;
68938;SDS011;59064;45.294;11.816;2022-08-19T09:44:36;1.20;;;0.50;;
68938;SDS011;59064;45.294;11.816;2022-08-19T09:47:03;1.50;;;0.60;;
68938;SDS011;59064;45.294;11.816;2022-08-19T09:49:29;1.80;;;0.40;;
68938;SDS011;59064;45.294;11.816;2022-08-19T09:51:56;3.20;;;0.70;;
68938;SDS011;59064;45.294;11.816;2022-08-19T09:54:22;1.90;;;0.50;;
68938;SDS011;59064;45.294;11.816;2022-08-19T09:56:48;1.70;;;0.50;;
68938;SDS011;59064;45.294;11.816;2022-08-19T09:59:13;1.50;;;0.60;;
68938;SDS011;59064;45.294;11.816;2022-08-19T10:01:39;3.60;;;0.70;;
68938;SDS011;59064;45.294;11.816;2022-08-19T10:04:07;1.90;;;0.70;;
68938;SDS011;59064;45.294;11.816;2022-08-19T10:06:36;1.50;;;0.50;;
68938;SDS011;59064;45.294;11.816;2022-08-19T10:09:04;2.30;;;0.60;;
68938;SDS011;59064;45.294;11.816;2022-08-19T10:11:32;1.90;;;0.50;;
68938;SDS011;59064;45.294;11.816;2022-08-19T10:13:59;2.50;;;0.60;;
68938;SDS011;59064;45.294;11.816;2022-08-19T10:16:25;3.80;;;0.60;;
68938;SDS011;59064;45.294;11.816;2022-08-19T10:18:51;1.80;;;0.70;;
68938;SDS011;59064;45.294;11.816;2022-08-19T10:21:19;2.00;;;0.50;;
68938;SDS011;59064;45.294;11.816;2022-08-19T10:23:48;1.60;;;0.60;;
68938;SDS011;59064;45.294;11.816;2022-08-19T10:26:20;3.40;;;0.80;;
68938;SDS011;59064;45.294;11.816;2022-08-19T10:28:47;3.60;;;0.70;;
68938;SDS011;59064;45.294;11.816;2022-08-19T10:31:15;4.30;;;0.90;;
68938;SDS011;59064;45.294;11.816;2022-08-19T10:33:55;3.10;;;0.70;;
68938;SDS011;59064;45.294;11.816;2022-08-19T10:36:31;2.40;;;0.70;;
68938;SDS011;59064;45.294;11.816;2022-08-19T10:39:01;3.60;;;1.10;;
68938;SDS011;59064;45.294;11.816;2022-08-19T10:41:35;3.20;;;0.90;;
68938;SDS011;59064;45.294;11.816;2022-08-19T10:44:06;3.40;;;1.00;;
68938;SDS011;59064;45.294;11.816;2022-08-19T10:46:35;3.60;;;0.80;;
68938;SDS011;59064;45.294;11.816;2022-08-19T10:49:03;4.20;;;1.60;;
68938;SDS011;59064;45.294;11.816;2022-08-19T10:51:30;6.70;;;1.10;;
68938;SDS011;59064;45.294;11.816;2022-08-19T10:54:16;4.00;;;1.10;;
68938;SDS011;59064;45.294;11.816;2022-08-19T10:56:42;3.20;;;1.10;;
68938;SDS011;59064;45.294;11.816;2022-08-19T10:59:24;3.80;;;1.00;;
68938;SDS011;59064;45.294;11.816;2022-08-19T11:01:53;4.50;;;1.20;;
68938;SDS011;59064;45.294;11.816;2022-08-19T11:04:23;3.50;;;0.90;;
68938;SDS011;59064;45.294;11.816;2022-08-19T11:06:49;2.70;;;0.90;;
68938;SDS011;59064;45.294;11.816;2022-08-19T11:09:18;2.80;;;0.70;;
68938;SDS011;59064;45.294;11.816;2022-08-19T11:11:49;3.50;;;0.80;;
68938;SDS011;59064;45.294;11.816;2022-08-19T11:14:15;1.30;;;0.40;;
68938;SDS011;59064;45.294;11.816;2022-08-19T11:16:43;2.80;;;0.70;;
68938;SDS011;59064;45.294;11.816;2022-08-19T11:19:09;2.70;;;0.60;;
68938;SDS011;59064;45.294;11.816;2022-08-19T11:21:40;2.80;;;0.50;;
68938;SDS011;59064;45.294;11.816;2022-08-19T11:24:08;2.10;;;0.50;;
68938;SDS011;59064;45.294;11.816;2022-08-19T11:26:36;2.30;;;0.60;;
68938;SDS011;59064;45.294;11.816;2022-08-19T11:29:03;2.20;;;0.50;;
68938;SDS011;59064;45.294;11.816;2022-08-19T11:31:32;1.70;;;0.50;;
68938;SDS011;59064;45.294;11.816;2022-08-19T11:34:01;2.10;;;0.50;;
68938;SDS011;59064;45.294;11.816;2022-08-19T11:36:30;2.70;;;0.60;;
68938;SDS011;59064;45.294;11.816;2022-08-19T11:38:57;2.10;;;0.60;;
68938;SDS011;59064;45.294;11.816;2022-08-19T11:41:23;1.80;;;0.50;;
68938;SDS011;59064;45.294;11.816;2022-08-19T11:43:49;2.30;;;0.50;;
68938;SDS011;59064;45.294;11.816;2022-08-19T11:46:18;3.20;;;0.80;;
68938;SDS011;59064;45.294;11.816;2022-08-19T11:48:43;2.40;;;0.50;;
68938;SDS011;59064;45.294;11.816;2022-08-19T11:51:13;4.20;;;0.80;;
68938;SDS011;59064;45.294;11.816;2022-08-19T11:53:40;2.70;;;0.70;;
68938;SDS011;59064;45.294;11.816;2022-08-19T11:56:07;3.20;;;0.50;;
68938;SDS011;59064;45.294;11.816;2022-08-19T11:58:34;2.00;;;0.60;;
68938;SDS011;59064;45.294;11.816;2022-08-19T12:01:00;3.00;;;0.60;;
68938;SDS011;59064;45.294;11.816;2022-08-19T12:03:26;1.60;;;0.50;;
68938;SDS011;59064;45.294;11.816;2022-08-19T12:05:52;1.40;;;0.60;;
68938;SDS011;59064;45.294;11.816;2022-08-19T12:08:18;1.00;;;0.40;;
68938;SDS011;59064;45.294;11.816;2022-08-19T12:10:45;1.90;;;0.50;;
68938;SDS011;59064;45.294;11.816;2022-08-19T12:13:12;2.90;;;0.40;;
68938;SDS011;59064;45.294;11.816;2022-08-19T12:15:45;2.50;;;0.50;;
68938;SDS011;59064;45.294;11.816;2022-08-19T12:18:11;2.50;;;0.60;;
68938;SDS011;59064;45.294;11.816;2022-08-19T12:20:39;2.00;;;0.70;;
68938;SDS011;59064;45.294;11.816;2022-08-19T12:23:06;1.60;;;0.50;;
68938;SDS011;59064;45.294;11.816;2022-08-19T12:25:34;1.90;;;0.50;;
68938;SDS011;59064;45.294;11.816;2022-08-19T12:28:01;2.10;;;0.50;;
68938;SDS011;59064;45.294;11.816;2022-08-19T12:30:28;2.30;;;0.90;;
68938;SDS011;59064;45.294;11.816;2022-08-19T12:32:54;2.60;;;0.70;;
68938;SDS011;59064;45.294;11.816;2022-08-19T12:35:20;3.60;;;1.30;;
68938;SDS011;59064;45.294;11.816;2022-08-19T12:37:46;4.10;;;1.40;;
68938;SDS011;59064;45.294;11.816;2022-08-19T12:40:14;4.50;;;1.30;;
68938;SDS011;59064;45.294;11.816;2022-08-19T12:42:41;5.10;;;1.80;;
68938;SDS011;59064;45.294;11.816;2022-08-19T12:45:08;3.50;;;1.50;;
68938;SDS011;59064;45.294;11.816;2022-08-19T12:47:35;3.70;;;1.60;;
68938;SDS011;59064;45.294;11.816;2022-08-19T12:50:01;5.50;;;1.70;;
68938;SDS011;59064;45.294;11.816;2022-08-19T12:52:26;5.50;;;1.50;;
68938;SDS011;59064;45.294;11.816;2022-08-19T12:54:54;5.70;;;1.40;;
68938;SDS011;59064;45.294;11.816;2022-08-19T12:57:22;5.60;;;1.50;;
68938;SDS011;59064;45.294;11.816;2022-08-19T12:59:51;3.60;;;1.40;;
68938;SDS011;59064;45.294;11.816;2022-08-19T13:02:20;3.40;;;1.70;;
68938;SDS011;59064;45.294;11.816;2022-08-19T13:04:47;3.30;;;1.50;;
68938;SDS011;59064;45.294;11.816;2022-08-19T13:07:13;4.70;;;1.50;;
68938;SDS011;59064;45.294;11.816;2022-08-19T13:09:39;4.80;;;1.70;;
68938;SDS011;59064;45.294;11.816;2022-08-19T13:12:07;3.40;;;1.60;;
68938;SDS011;59064;45.294;11.816;2022-08-19T13:14:37;5.00;;;1.60;;
68938;SDS011;59064;45.294;11.816;2022-08-19T13:17:08;7.50;;;1.50;;
68938;SDS011;59064;45.294;11.816;2022-08-19T13:19:35;5.00;;;1.30;;
68938;SDS011;59064;45.294;11.816;2022-08-19T13:22:01;5.10;;;1.50;;
68938;SDS011;59064;45.294;11.816;2022-08-19T13:24:27;3.00;;;1.10;;
68938;SDS011;59064;45.294;11.816;2022-08-19T13:26:52;4.20;;;1.30;;
68938;SDS011;59064;45.294;11.816;2022-08-19T13:29:18;3.30;;;1.20;;
68938;SDS011;59064;45.294;11.816;2022-08-19T13:32:02;4.10;;;1.20;;
68938;SDS011;59064;45.294;11.816;2022-08-19T13:34:46;4.00;;;1.40;;
68938;SDS011;59064;45.294;11.816;2022-08-19T13:37:11;3.40;;;1.20;;
68938;SDS011;59064;45.294;11.816;2022-08-19T13:39:39;4.10;;;1.20;;
68938;SDS011;59064;45.294;11.816;2022-08-19T13:42:05;4.50;;;1.20;;
68938;SDS011;59064;45.294;11.816;2022-08-19T13:44:32;3.30;;;1.00;;
68938;SDS011;59064;45.294;11.816;2022-08-19T13:47:02;2.70;;;1.00;;
68938;SDS011;59064;45.294;11.816;2022-08-19T13:49:33;3.30;;;1.10;;
68938;SDS011;59064;45.294;11.816;2022-08-19T13:52:02;3.30;;;1.20;;
68938;SDS011;59064;45.294;11.816;2022-08-19T13:54:28;4.60;;;1.20;;
68938;SDS011;59064;45.294;11.816;2022-08-19T13:56:54;3.90;;;1.10;;
68938;SDS011;59064;45.294;11.816;2022-08-19T13:59:19;3.30;;;1.00;;
68938;SDS011;59064;45.294;11.816;2022-08-19T14:01:45;4.40;;;1.40;;
68938;SDS011;59064;45.294;11.816;2022-08-19T14:04:10;3.90;;;1.40;;
68938;SDS011;59064;45.294;11.816;2022-08-19T14:06:37;3.90;;;1.00;;
68938;SDS011;59064;45.294;11.816;2022-08-19T14:09:02;4.00;;;1.20;;
68938;SDS011;59064;45.294;11.816;2022-08-19T14:11:30;3.50;;;0.90;;
68938;SDS011;59064;45.294;11.816;2022-08-19T14:13:56;5.00;;;1.00;;
68938;SDS011;59064;45.294;11.816;2022-08-19T14:16:22;4.40;;;1.10;;
68938;SDS011;59064;45.294;11.816;2022-08-19T14:18:47;4.80;;;1.50;;
68938;SDS011;59064;45.294;11.816;2022-08-19T14:21:14;2.70;;;1.00;;
68938;SDS011;59064;45.294;11.816;2022-08-19T14:23:48;3.70;;;1.00;;
68938;SDS011;59064;45.294;11.816;2022-08-19T14:26:15;3.50;;;1.20;;
68938;SDS011;59064;45.294;11.816;2022-08-19T14:28:43;3.60;;;1.10;;
68938;SDS011;59064;45.294;11.816;2022-08-19T14:31:10;4.30;;;1.10;;
68938;SDS011;59064;45.294;11.816;2022-08-19T14:33:36;4.00;;;1.00;;
68938;SDS011;59064;45.294;11.816;2022-08-19T14:36:02;4.00;;;1.20;;
68938;SDS011;59064;45.294;11.816;2022-08-19T14:38:28;4.60;;;1.40;;
68938;SDS011;59064;45.294;11.816;2022-08-19T14:41:05;4.60;;;1.30;;
68938;SDS011;59064;45.294;11.816;2022-08-19T14:43:35;3.50;;;1.00;;
68938;SDS011;59064;45.294;11.816;2022-08-19T14:46:01;3.10;;;0.80;;
68938;SDS011;59064;45.294;11.816;2022-08-19T14:48:26;4.30;;;1.00;;
68938;SDS011;59064;45.294;11.816;2022-08-19T14:50:52;4.50;;;1.10;;
68938;SDS011;59064;45.294;11.816;2022-08-19T14:53:17;3.70;;;1.10;;
68938;SDS011;59064;45.294;11.816;2022-08-19T14:55:44;3.30;;;1.20;;
68938;SDS011;59064;45.294;11.816;2022-08-19T14:58:10;3.00;;;1.10;;
68938;SDS011;59064;45.294;11.816;2022-08-19T15:00:37;4.10;;;1.10;;
68938;SDS011;59064;45.294;11.816;2022-08-19T15:03:04;4.10;;;1.30;;
68938;SDS011;59064;45.294;11.816;2022-08-19T15:05:29;3.50;;;1.00;;
68938;SDS011;59064;45.294;11.816;2022-08-19T15:07:56;3.60;;;1.10;;